Time;durP1;ratioP1;P1;durP2;ratioP2;P2;SDS_P1;SDS_P2;PMS_P1;PMS_P2;Temp;Humidity;BMP_temperature;BMP_pressure;BME280_temperature;BME280_humidity;BME280_pressure;Samples;Min_cycle;Max_cycle;Signal;HPM_P1;HPM_P2
2021/05/28 00:01:14;;;;;;;15.32;7.72;;;8.80;95.10;;;;;;3575818;40;20060;-82
2021/05/28 00:03:40;;;;;;;17.05;7.72;;;8.80;94.80;;;;;;3576238;40;20041;-82
2021/05/28 00:06:06;;;;;;;22.77;8.48;;;8.80;95.00;;;;;;3576679;40;20248;-81
2021/05/28 00:08:32;;;;;;;18.10;9.02;;;8.90;95.30;;;;;;3576362;40;20056;-82
2021/05/28 00:10:58;;;;;;;18.25;9.23;;;8.90;95.00;;;;;;3576354;40;20134;-82
2021/05/28 00:13:24;;;;;;;25.92;11.68;;;8.90;95.30;;;;;;3576952;40;20134;-81
2021/05/28 00:15:50;;;;;;;15.48;9.63;;;9.00;95.30;;;;;;3576012;40;20048;-82
2021/05/28 00:18:16;;;;;;;20.00;10.30;;;9.00;95.40;;;;;;3576646;40;20068;-81
2021/05/28 00:20:50;;;;;;;16.83;9.50;;;9.00;95.30;;;;;;3576932;40;20040;-85
2021/05/28 00:23:16;;;;;;;19.50;9.02;;;9.00;95.40;;;;;;3575120;40;20283;-82
2021/05/28 00:25:41;;;;;;;16.27;7.85;;;9.00;95.30;;;;;;3575832;40;20063;-82
2021/05/28 00:28:07;;;;;;;14.18;6.85;;;9.00;95.10;;;;;;3575528;40;20443;-82
2021/05/28 00:30:33;;;;;;;12.05;7.78;;;9.10;95.40;;;;;;3575723;40;20436;-81
2021/05/28 00:32:59;;;;;;;19.80;6.80;;;9.00;95.60;;;;;;3576317;40;20053;-81
2021/05/28 00:35:25;;;;;;;16.30;8.73;;;9.00;95.30;;;;;;3575494;40;20044;-82
2021/05/28 00:37:51;;;;;;;13.00;7.03;;;9.00;95.20;;;;;;3575736;40;20041;-82
2021/05/28 00:40:17;;;;;;;12.50;5.90;;;9.00;95.00;;;;;;3575561;40;20041;-81
2021/05/28 00:42:43;;;;;;;23.30;6.65;;;9.10;95.30;;;;;;3576690;40;20327;-81
2021/05/28 00:45:09;;;;;;;16.92;9.38;;;9.20;95.10;;;;;;3575254;40;20137;-81
2021/05/28 00:47:35;;;;;;;18.05;8.35;;;9.10;95.20;;;;;;3575650;40;20179;-82
2021/05/28 00:50:03;;;;;;;18.27;9.23;;;9.10;95.20;;;;;;3575068;40;20310;-82
2021/05/28 00:52:29;;;;;;;20.02;10.70;;;9.10;95.20;;;;;;3576838;40;20045;-82
2021/05/28 00:54:55;;;;;;;17.42;10.35;;;9.10;95.10;;;;;;3574738;40;20051;-82
2021/05/28 00:57:23;;;;;;;26.50;11.85;;;9.20;95.40;;;;;;3575352;40;20041;-81
2021/05/28 00:59:51;;;;;;;24.02;13.13;;;9.20;95.10;;;;;;3592558;39;20045;-82
2021/05/28 01:02:17;;;;;;;20.50;9.80;;;9.20;95.40;;;;;;3576343;40;20045;-82
2021/05/28 01:04:43;;;;;;;16.88;10.07;;;9.20;95.50;;;;;;3576113;40;20242;-82
2021/05/28 01:07:09;;;;;;;20.30;10.40;;;9.30;95.40;;;;;;3567131;40;20060;-82
2021/05/28 01:09:35;;;;;;;25.17;10.82;;;9.20;95.50;;;;;;3576425;40;20056;-82
2021/05/28 01:12:01;;;;;;;15.45;10.07;;;9.20;95.40;;;;;;3575240;40;20293;-81
2021/05/28 01:14:27;;;;;;;18.23;9.98;;;9.20;95.30;;;;;;3575503;40;20053;-82
2021/05/28 01:16:53;;;;;;;20.58;9.43;;;9.20;95.20;;;;;;3576462;40;20630;-82
2021/05/28 01:19:18;;;;;;;13.32;8.15;;;9.30;95.30;;;;;;3575303;40;20040;-83
2021/05/28 01:21:45;;;;;;;15.65;8.48;;;9.30;95.30;;;;;;3576130;40;20340;-82
2021/05/28 01:24:11;;;;;;;12.90;7.90;;;9.30;95.50;;;;;;3575285;40;20052;-82
2021/05/28 01:26:37;;;;;;;15.55;8.15;;;9.20;95.60;;;;;;3575156;40;20048;-83
2021/05/28 01:29:03;;;;;;;11.18;6.05;;;9.20;95.50;;;;;;3575193;40;20415;-82
2021/05/28 01:31:30;;;;;;;19.58;8.48;;;9.20;95.40;;;;;;3592049;39;20093;-83
2021/05/28 01:33:55;;;;;;;14.45;6.57;;;9.30;95.30;;;;;;3575149;40;20037;-82
2021/05/28 01:36:21;;;;;;;16.05;7.15;;;9.30;95.30;;;;;;3576291;40;20057;-84
2021/05/28 01:38:47;;;;;;;18.40;7.28;;;9.20;95.40;;;;;;3574749;40;20057;-83
2021/05/28 01:41:13;;;;;;;16.40;7.20;;;9.30;95.50;;;;;;3575804;40;20080;-83
2021/05/28 01:43:39;;;;;;;16.88;7.90;;;9.30;95.60;;;;;;3574945;40;20100;-83
2021/05/28 01:46:05;;;;;;;14.98;6.53;;;9.30;95.50;;;;;;3574798;40;20065;-82
2021/05/28 01:48:31;;;;;;;14.63;5.50;;;9.30;95.50;;;;;;3574674;40;20052;-82
2021/05/28 01:50:57;;;;;;;14.35;5.25;;;9.30;95.50;;;;;;3574884;40;20048;-84
2021/05/28 01:53:24;;;;;;;14.88;6.47;;;9.30;95.50;;;;;;3575269;40;20041;-83
2021/05/28 01:55:52;;;;;;;15.15;5.68;;;9.30;95.60;;;;;;3575046;40;20048;-83
2021/05/28 01:58:21;;;;;;;13.93;6.05;;;9.20;95.40;;;;;;3575841;40;20306;-81
2021/05/28 02:00:48;;;;;;;12.00;5.78;;;9.30;95.50;;;;;;3576433;40;20357;-82
2021/05/28 02:03:15;;;;;;;13.40;7.13;;;9.30;95.60;;;;;;3574909;40;20061;-84
2021/05/28 02:05:42;;;;;;;14.68;7.93;;;9.40;95.50;;;;;;3577170;40;20155;-82
2021/05/28 02:08:08;;;;;;;17.30;9.20;;;9.30;95.70;;;;;;3576499;40;20045;-82
2021/05/28 02:10:35;;;;;;;17.98;9.25;;;9.30;95.50;;;;;;3576647;40;20251;-84
2021/05/28 02:13:01;;;;;;;13.50;7.32;;;9.30;95.50;;;;;;3576685;40;20040;-82
2021/05/28 02:15:30;;;;;;;15.00;7.22;;;9.30;95.40;;;;;;3577824;40;20319;-82
2021/05/28 02:17:58;;;;;;;17.08;7.22;;;9.30;95.50;;;;;;3568339;40;20037;-82
2021/05/28 02:20:25;;;;;;;18.27;8.55;;;9.40;95.50;;;;;;3577491;40;20037;-82
2021/05/28 02:22:51;;;;;;;20.90;8.60;;;9.40;95.40;;;;;;3577423;40;20066;-82
2021/05/28 02:25:17;;;;;;;16.70;7.72;;;9.40;95.80;;;;;;3577403;40;20037;-82
2021/05/28 02:27:44;;;;;;;14.15;6.35;;;9.40;95.60;;;;;;3576707;40;20068;-82
2021/05/28 02:30:11;;;;;;;9.68;6.10;;;9.30;95.40;;;;;;3577345;40;20126;-83
2021/05/28 02:32:37;;;;;;;14.05;6.18;;;9.40;95.40;;;;;;3577201;40;20036;-82
2021/05/28 02:35:06;;;;;;;15.38;7.38;;;9.40;95.40;;;;;;3576960;40;20044;-82
2021/05/28 02:37:33;;;;;;;18.23;6.50;;;9.40;95.80;;;;;;3576439;40;20076;-82
2021/05/28 02:39:59;;;;;;;13.30;6.50;;;9.40;95.60;;;;;;3576151;40;20037;-82
2021/05/28 02:42:25;;;;;;;10.57;6.10;;;9.40;95.60;;;;;;3575971;40;20044;-83
2021/05/28 02:44:52;;;;;;;15.02;6.65;;;9.40;95.60;;;;;;3577185;40;20040;-82
2021/05/28 02:47:20;;;;;;;14.30;5.90;;;9.40;95.70;;;;;;3577040;40;20330;-84
2021/05/28 02:49:47;;;;;;;13.00;6.25;;;9.40;95.60;;;;;;3576414;40;20048;-82
2021/05/28 02:52:14;;;;;;;15.02;6.88;;;9.40;95.60;;;;;;3575868;40;20067;-81
2021/05/28 02:54:44;;;;;;;10.75;6.07;;;9.40;95.70;;;;;;3577332;40;20045;-82
2021/05/28 02:57:10;;;;;;;9.52;5.88;;;9.40;95.60;;;;;;3575712;40;20041;-83
2021/05/28 02:59:36;;;;;;;10.35;5.60;;;9.40;95.60;;;;;;3577125;40;20094;-82
2021/05/28 03:02:03;;;;;;;11.38;6.57;;;9.40;95.50;;;;;;3584537;40;20290;-82
2021/05/28 03:04:29;;;;;;;14.65;6.22;;;9.40;95.60;;;;;;3576176;40;20047;-82
2021/05/28 03:06:55;;;;;;;9.77;5.93;;;9.40;95.70;;;;;;3567649;40;20041;-82
2021/05/28 03:09:21;;;;;;;13.65;7.28;;;9.40;95.60;;;;;;3577095;40;20052;-82
2021/05/28 03:11:47;;;;;;;21.02;7.88;;;9.40;95.70;;;;;;3577209;40;20051;-82
2021/05/28 03:14:16;;;;;;;12.88;5.60;;;9.40;95.50;;;;;;3575994;40;20098;-82
2021/05/28 03:16:41;;;;;;;11.35;6.03;;;9.40;95.50;;;;;;3576263;40;20033;-81
2021/05/28 03:19:16;;;;;;;10.25;5.18;;;9.50;95.70;;;;;;3576253;40;20055;-82
2021/05/28 03:24:26;;;;;;;11.63;5.90;;;9.50;95.60;;;;;;3576858;40;20037;-81
2021/05/28 03:26:52;;;;;;;12.23;5.78;;;9.40;95.40;;;;;;3577287;40;20100;-82
2021/05/28 03:29:18;;;;;;;9.95;4.50;;;9.40;95.30;;;;;;3577047;40;20041;-82
2021/05/28 03:31:44;;;;;;;14.10;5.15;;;9.40;95.40;;;;;;3576155;40;20069;-82
2021/05/28 03:34:09;;;;;;;8.73;4.60;;;9.40;95.30;;;;;;3575904;40;20044;-81
2021/05/28 03:36:35;;;;;;;9.57;5.05;;;9.40;95.40;;;;;;3576973;40;20049;-82
2021/05/28 03:39:01;;;;;;;10.85;5.43;;;9.40;95.50;;;;;;3567660;40;20331;-82
2021/05/28 03:41:27;;;;;;;9.57;6.22;;;9.40;95.50;;;;;;3577094;40;20041;-81
2021/05/28 03:43:53;;;;;;;13.98;5.93;;;9.30;95.30;;;;;;3576016;40;20047;-81
2021/05/28 03:46:19;;;;;;;18.30;6.70;;;9.30;95.30;;;;;;3576366;40;20118;-82
2021/05/28 03:48:45;;;;;;;14.98;5.07;;;9.30;95.40;;;;;;3577064;40;20103;-81
2021/05/28 03:51:11;;;;;;;14.77;5.20;;;9.30;95.30;;;;;;3575958;40;20224;-82
2021/05/28 03:53:37;;;;;;;11.80;4.68;;;9.30;95.30;;;;;;3576130;40;20052;-82
2021/05/28 03:56:03;;;;;;;12.80;5.25;;;9.30;95.20;;;;;;3576511;40;20123;-82
2021/05/28 03:58:29;;;;;;;14.85;5.63;;;9.30;95.20;;;;;;3576739;40;20251;-81
2021/05/28 04:00:55;;;;;;;16.05;5.07;;;9.30;95.20;;;;;;3575487;40;20041;-82
2021/05/28 04:03:21;;;;;;;8.70;5.05;;;9.30;95.40;;;;;;3576081;40;20185;-82
2021/05/28 04:05:47;;;;;;;15.60;5.95;;;9.40;95.30;;;;;;3576835;40;20040;-82
2021/05/28 04:08:13;;;;;;;12.00;5.03;;;9.40;95.30;;;;;;3567449;40;20065;-82
2021/05/28 04:10:38;;;;;;;22.80;7.65;;;9.50;95.30;;;;;;3576626;40;20251;-82
2021/05/28 04:13:05;;;;;;;12.02;5.55;;;9.50;95.30;;;;;;3567154;40;20049;-82
2021/05/28 04:15:31;;;;;;;11.95;6.10;;;9.60;95.40;;;;;;3575792;40;20045;-82
2021/05/28 04:17:56;;;;;;;13.32;5.18;;;9.60;95.40;;;;;;3575943;40;20049;-81
2021/05/28 04:20:22;;;;;;;9.25;4.97;;;9.60;95.40;;;;;;3567591;40;20053;-83
2021/05/28 04:22:49;;;;;;;13.10;5.50;;;9.60;95.30;;;;;;3576011;40;20295;-82
2021/05/28 04:25:15;;;;;;;14.15;5.85;;;9.50;95.20;;;;;;3576739;40;20158;-81
2021/05/28 04:27:41;;;;;;;17.67;6.25;;;9.50;95.50;;;;;;3576919;40;20057;-82
2021/05/28 04:30:08;;;;;;;11.50;6.32;;;9.50;95.30;;;;;;3576287;40;20051;-82
2021/05/28 04:32:33;;;;;;;10.57;5.55;;;9.60;95.40;;;;;;3575989;40;20142;-82
2021/05/28 04:34:59;;;;;;;12.95;4.97;;;9.60;95.70;;;;;;3575702;40;20052;-82
2021/05/28 04:37:25;;;;;;;9.38;5.07;;;9.70;96.00;;;;;;3575862;40;20037;-81
2021/05/28 04:39:51;;;;;;;13.38;5.50;;;9.90;96.00;;;;;;3577020;40;20146;-82
2021/05/28 04:42:17;;;;;;;9.00;4.70;;;10.00;96.10;;;;;;3576563;40;20040;-82
2021/05/28 04:44:43;;;;;;;9.93;4.72;;;10.10;96.20;;;;;;3575714;40;20260;-82
2021/05/28 04:47:09;;;;;;;9.60;4.72;;;10.20;96.30;;;;;;3576073;40;20040;-82
2021/05/28 04:49:34;;;;;;;11.73;4.40;;;10.30;96.60;;;;;;3575605;40;20217;-81
2021/05/28 04:52:01;;;;;;;9.63;3.70;;;10.50;96.70;;;;;;3576329;40;20053;-82
2021/05/28 04:54:27;;;;;;;9.85;5.07;;;10.70;96.80;;;;;;3573756;40;20041;-82
2021/05/28 04:56:53;;;;;;;10.88;5.72;;;11.00;96.90;;;;;;3574669;40;20053;-82
2021/05/28 04:59:18;;;;;;;10.68;4.85;;;11.50;96.90;;;;;;3575001;40;20041;-82
2021/05/28 05:01:44;;;;;;;6.95;4.20;;;12.00;96.70;;;;;;3575163;40;20040;-82
2021/05/28 05:04:10;;;;;;;11.57;4.75;;;12.60;96.80;;;;;;3574896;40;20025;-82
2021/05/28 05:06:36;;;;;;;10.90;5.85;;;13.30;96.10;;;;;;3566808;40;20051;-83
2021/05/28 05:09:02;;;;;;;14.93;5.50;;;13.80;95.70;;;;;;3574827;40;20170;-83
2021/05/28 05:11:28;;;;;;;11.32;4.78;;;14.40;95.00;;;;;;3575871;40;20063;-83
2021/05/28 05:13:57;;;;;;;10.43;4.32;;;15.00;94.90;;;;;;3575035;40;20049;-83
2021/05/28 05:16:23;;;;;;;9.15;5.05;;;15.70;94.10;;;;;;3576094;40;20051;-82
2021/05/28 05:18:50;;;;;;;8.20;4.07;;;16.30;93.60;;;;;;3575249;40;20041;-83
2021/05/28 05:21:16;;;;;;;13.25;5.50;;;16.80;92.70;;;;;;3571928;40;20312;-82
2021/05/28 05:23:42;;;;;;;18.85;4.63;;;17.30;92.70;;;;;;3566664;40;20036;-83
2021/05/28 05:26:08;;;;;;;8.55;3.70;;;17.80;92.50;;;;;;3566240;40;20043;-82
2021/05/28 05:28:33;;;;;;;7.60;4.10;;;18.20;92.10;;;;;;3575050;40;20056;-83
2021/05/28 05:30:59;;;;;;;7.85;3.95;;;18.60;91.80;;;;;;3565905;40;20041;-82
2021/05/28 05:33:25;;;;;;;7.85;4.00;;;18.90;91.50;;;;;;3574624;40;20033;-82
2021/05/28 05:35:51;;;;;;;9.80;3.58;;;19.20;91.70;;;;;;3566685;40;20380;-83
2021/05/28 05:38:19;;;;;;;7.32;3.22;;;19.50;91.50;;;;;;3574501;40;20045;-82
2021/05/28 05:40:45;;;;;;;9.00;3.78;;;19.70;91.60;;;;;;3576426;40;20064;-83
2021/05/28 05:43:10;;;;;;;10.02;3.50;;;19.60;91.30;;;;;;3577032;40;20048;-83
2021/05/28 05:45:39;;;;;;;10.65;3.40;;;19.20;91.90;;;;;;3577320;40;20060;-83
2021/05/28 05:48:06;;;;;;;10.25;3.88;;;18.90;92.70;;;;;;3577158;40;20044;-83
2021/05/28 05:50:32;;;;;;;12.13;4.47;;;18.50;93.00;;;;;;3576457;40;20036;-82
2021/05/28 05:52:58;;;;;;;8.55;4.80;;;18.00;93.40;;;;;;3576453;40;20044;-83
2021/05/28 05:55:24;;;;;;;10.10;4.30;;;17.50;93.60;;;;;;3567963;40;20040;-83
2021/05/28 05:57:51;;;;;;;8.30;4.30;;;17.20;94.40;;;;;;3576101;40;20039;-83
2021/05/28 06:00:17;;;;;;;11.85;4.82;;;17.00;94.50;;;;;;3576861;40;20393;-82
2021/05/28 06:02:43;;;;;;;11.27;5.15;;;16.80;95.10;;;;;;3577061;40;20141;-82
2021/05/28 06:05:10;;;;;;;10.30;4.53;;;16.70;95.20;;;;;;3576008;40;20335;-82
2021/05/28 06:07:36;;;;;;;11.20;4.78;;;16.60;95.00;;;;;;3576202;40;20044;-84
2021/05/28 06:10:03;;;;;;;11.38;3.25;;;16.60;95.20;;;;;;3575777;40;20040;-82
2021/05/28 06:12:29;;;;;;;7.95;4.15;;;16.60;95.50;;;;;;3575953;40;20066;-82
2021/05/28 06:14:55;;;;;;;7.22;3.45;;;16.70;95.00;;;;;;3576102;40;20040;-83
2021/05/28 06:17:21;;;;;;;9.30;3.70;;;16.60;95.00;;;;;;3576651;40;20037;-82
2021/05/28 06:19:47;;;;;;;8.05;3.03;;;16.40;94.90;;;;;;3576242;40;20037;-83
2021/05/28 06:22:13;;;;;;;12.23;4.45;;;16.50;94.70;;;;;;3575807;40;20210;-82
2021/05/28 06:24:39;;;;;;;11.43;4.30;;;16.50;94.80;;;;;;3559100;40;20037;-82
2021/05/28 06:27:08;;;;;;;7.28;3.28;;;16.30;94.30;;;;;;3576957;40;20056;-82
2021/05/28 06:29:34;;;;;;;5.72;3.50;;;16.10;94.40;;;;;;3577244;40;20513;-82
2021/05/28 06:31:59;;;;;;;10.27;3.08;;;15.90;94.80;;;;;;3564241;40;20087;-85
2021/05/28 06:34:25;;;;;;;6.13;2.45;;;15.90;94.70;;;;;;3576072;40;20052;-82
2021/05/28 06:36:51;;;;;;;6.90;2.88;;;16.20;94.20;;;;;;3577082;40;20044;-82
2021/05/28 06:39:17;;;;;;;7.93;2.53;;;16.40;94.00;;;;;;3567295;40;20681;-82
2021/05/28 06:41:43;;;;;;;10.05;2.55;;;16.40;93.80;;;;;;3576075;40;20048;-82
2021/05/28 06:44:09;;;;;;;7.15;2.58;;;16.50;93.80;;;;;;3576931;40;20316;-82
2021/05/28 06:46:35;;;;;;;8.60;2.40;;;16.70;93.40;;;;;;3575733;40;20060;-82
2021/05/28 06:49:02;;;;;;;5.85;2.25;;;17.00;92.70;;;;;;3567897;40;20036;-82
2021/05/28 06:51:27;;;;;;;6.57;2.75;;;16.90;92.60;;;;;;3575439;40;20421;-82
2021/05/28 06:53:53;;;;;;;4.97;2.55;;;16.60;92.30;;;;;;3576041;40;20056;-82
2021/05/28 06:56:19;;;;;;;7.32;2.05;;;16.60;92.30;;;;;;3575790;40;20257;-83
2021/05/28 06:58:49;;;;;;;3.53;1.75;;;17.10;92.70;;;;;;3576087;40;20131;-82
2021/05/28 07:01:16;;;;;;;6.05;1.98;;;17.50;91.60;;;;;;3572595;40;20257;-83
2021/05/28 07:03:42;;;;;;;5.75;1.40;;;17.30;91.90;;;;;;3567801;40;20048;-83
2021/05/28 07:06:08;;;;;;;8.57;1.80;;;17.00;90.90;;;;;;3575741;40;20044;-82
2021/05/28 07:08:34;;;;;;;5.82;1.20;;;16.50;90.50;;;;;;3576089;40;20037;-82
2021/05/28 07:11:00;;;;;;;6.55;1.50;;;16.20;90.80;;;;;;3575256;40;20598;-82
2021/05/28 07:13:26;;;;;;;5.38;1.05;;;16.10;91.20;;;;;;3575996;40;20131;-82
2021/05/28 07:15:52;;;;;;;5.75;1.23;;;16.20;90.40;;;;;;3576827;40;20052;-83
2021/05/28 07:18:18;;;;;;;3.58;0.85;;;16.40;90.90;;;;;;3576456;40;20544;-82
2021/05/28 07:20:44;;;;;;;3.80;1.58;;;16.90;90.40;;;;;;3576804;40;20088;-83
2021/05/28 07:23:11;;;;;;;3.90;0.85;;;17.40;90.50;;;;;;3575320;40;20041;-82
2021/05/28 07:25:37;;;;;;;6.35;1.73;;;17.60;89.50;;;;;;3575878;40;20077;-81
2021/05/28 07:28:04;;;;;;;3.80;0.82;;;17.70;88.50;;;;;;3576606;40;20045;-82
2021/05/28 07:30:30;;;;;;;4.45;0.93;;;18.00;88.60;;;;;;3575830;40;20043;-82
2021/05/28 07:32:56;;;;;;;3.92;1.10;;;18.40;86.30;;;;;;3576312;40;20228;-82
2021/05/28 07:35:22;;;;;;;5.70;1.55;;;19.00;87.00;;;;;;3576493;40;20048;-82
2021/05/28 07:37:48;;;;;;;4.55;1.60;;;19.70;88.50;;;;;;3567205;40;20613;-83
2021/05/28 07:40:14;;;;;;;3.95;1.00;;;19.80;85.70;;;;;;3576098;40;20043;-82
2021/05/28 07:42:40;;;;;;;5.47;1.40;;;19.30;85.40;;;;;;3575513;40;20063;-81
2021/05/28 07:45:07;;;;;;;4.85;0.82;;;18.70;84.40;;;;;;3575060;40;20044;-82
2021/05/28 07:47:33;;;;;;;4.82;1.23;;;18.90;85.60;;;;;;3576580;40;20047;-82
2021/05/28 07:50:02;;;;;;;3.25;0.82;;;19.50;85.20;;;;;;3576463;40;20049;-82
2021/05/28 07:52:28;;;;;;;2.85;0.80;;;19.60;81.80;;;;;;3573842;40;20051;-82
2021/05/28 07:54:55;;;;;;;4.65;1.05;;;19.60;83.20;;;;;;3576721;40;20061;-82
2021/05/28 07:57:20;;;;;;;3.42;0.85;;;19.80;83.70;;;;;;3576004;40;20049;-82
2021/05/28 07:59:46;;;;;;;3.15;0.68;;;20.30;82.60;;;;;;3567357;40;20072;-82
2021/05/28 08:02:12;;;;;;;4.22;0.73;;;20.90;80.90;;;;;;3576089;40;20134;-82
2021/05/28 08:04:38;;;;;;;2.88;1.30;;;21.40;80.10;;;;;;3576465;40;20058;-83
2021/05/28 08:07:05;;;;;;;3.65;1.10;;;21.60;79.20;;;;;;3575143;40;20335;-82
2021/05/28 08:09:31;;;;;;;3.88;1.42;;;22.00;79.80;;;;;;3576280;40;20085;-82
2021/05/28 08:11:57;;;;;;;3.10;1.27;;;22.20;78.60;;;;;;3576373;40;20037;-82
2021/05/28 08:14:23;;;;;;;5.22;1.33;;;22.50;78.60;;;;;;3576371;40;20315;-82
2021/05/28 08:16:49;;;;;;;2.88;0.85;;;22.90;76.40;;;;;;3575998;40;20049;-82
2021/05/28 08:19:15;;;;;;;5.18;1.65;;;22.60;76.70;;;;;;3576259;40;20041;-82
2021/05/28 08:21:41;;;;;;;6.78;1.58;;;21.90;77.20;;;;;;3576511;40;20151;-82
2021/05/28 08:24:07;;;;;;;3.08;0.90;;;21.20;78.10;;;;;;3575252;40;20336;-83
2021/05/28 08:26:32;;;;;;;4.65;1.20;;;20.70;79.30;;;;;;3567147;40;20051;-82
2021/05/28 08:28:58;;;;;;;2.67;1.25;;;20.50;78.70;;;;;;3575406;40;20041;-82
2021/05/28 08:31:24;;;;;;;8.48;1.65;;;20.10;77.30;;;;;;3575178;40;20056;-82
2021/05/28 08:33:50;;;;;;;3.88;0.98;;;20.10;79.20;;;;;;3575346;40;20044;-82
2021/05/28 08:36:16;;;;;;;2.67;0.90;;;20.40;78.10;;;;;;3575676;40;20049;-82
2021/05/28 08:38:42;;;;;;;1.98;0.93;;;20.90;78.10;;;;;;3575208;40;20040;-81
2021/05/28 08:41:10;;;;;;;4.88;1.10;;;20.80;77.20;;;;;;3575734;40;20081;-83
2021/05/28 08:43:36;;;;;;;4.97;1.73;;;20.70;76.00;;;;;;3575163;40;20052;-82
2021/05/28 08:46:06;;;;;;;2.05;0.63;;;21.10;75.70;;;;;;3575822;40;20052;-82
2021/05/28 08:48:32;;;;;;;4.07;1.05;;;21.60;74.80;;;;;;3575241;40;20049;-82
2021/05/28 08:50:58;;;;;;;3.50;2.03;;;22.00;73.80;;;;;;3574949;40;20122;-82
2021/05/28 08:53:25;;;;;;;4.07;1.27;;;22.10;73.90;;;;;;3574984;40;20037;-82
2021/05/28 08:55:51;;;;;;;6.60;1.88;;;22.00;75.50;;;;;;3575236;40;20064;-82
2021/05/28 08:58:20;;;;;;;5.45;1.67;;;21.60;73.10;;;;;;3566444;40;20033;-82
2021/05/28 09:00:47;;;;;;;3.05;1.25;;;21.00;72.70;;;;;;3566996;40;20053;-82
2021/05/28 09:03:34;;;;;;;2.90;1.15;;;20.90;74.30;;;;;;3566376;40;20041;-82
2021/05/28 09:06:17;;;;;;;2.55;1.67;;;21.20;65.90;;;;;;3574976;40;20271;-81
2021/05/28 09:08:43;;;;;;;4.10;0.90;;;21.40;69.80;;;;;;3575404;40;20092;-81
2021/05/28 09:11:16;;;;;;;1.90;0.68;;;21.30;72.50;;;;;;3581130;40;20339;-81
2021/05/28 09:13:43;;;;;;;2.30;1.00;;;21.20;71.70;;;;;;3575827;40;20057;-80
2021/05/28 09:16:15;;;;;;;3.05;1.63;;;21.30;71.00;;;;;;3576438;40;20044;-81
2021/05/28 09:18:53;;;;;;;3.30;1.17;;;21.40;70.50;;;;;;3577595;40;20048;-81
2021/05/28 09:21:23;;;;;;;3.63;1.02;;;21.50;64.20;;;;;;3576100;40;20045;-81
2021/05/28 09:23:50;;;;;;;3.38;1.42;;;21.40;70.10;;;;;;3576733;40;20041;-81
2021/05/28 09:26:17;;;;;;;2.47;1.25;;;21.10;72.30;;;;;;3577259;40;20212;-81
2021/05/28 09:28:49;;;;;;;4.97;1.90;;;20.90;73.00;;;;;;3576813;40;20041;-80
2021/05/28 09:31:25;;;;;;;8.30;2.05;;;20.90;73.20;;;;;;3576629;40;20226;-81
2021/05/28 09:33:53;;;;;;;6.72;2.22;;;21.10;72.10;;;;;;3563148;40;20103;-83
2021/05/28 09:36:27;;;;;;;2.90;1.17;;;21.30;72.80;;;;;;3577034;40;20037;-81
2021/05/28 09:38:54;;;;;;;;;;;21.30;68.70;;;;;;3568701;40;20053;-81
2021/05/28 09:41:43;;;;;;;4.78;0.82;;;21.30;60.80;;;;;;3577004;40;19924;-82
2021/05/28 09:44:22;;;;;;;3.72;1.25;;;21.60;63.70;;;;;;3576051;40;20040;-81
2021/05/28 09:47:05;;;;;;;2.90;1.10;;;21.70;69.90;;;;;;3576884;40;20082;-81
2021/05/28 09:49:34;;;;;;;3.78;1.13;;;21.90;64.90;;;;;;3576155;40;20049;-82
2021/05/28 09:52:18;;;;;;;4.13;1.60;;;22.10;72.00;;;;;;3575890;40;20334;-81
2021/05/28 09:55:02;;;;;;;7.95;1.85;;;22.10;67.50;;;;;;3576983;40;20029;-81
2021/05/28 09:57:34;;;;;;;1.65;0.63;;;21.90;64.60;;;;;;3576082;40;20057;-81
2021/05/28 10:00:01;;;;;;;4.93;1.30;;;21.80;69.80;;;;;;3577188;40;20319;-81
2021/05/28 10:02:48;;;;;;;5.05;1.40;;;21.70;69.90;;;;;;3575877;40;20048;-81
2021/05/28 10:05:25;;;;;;;2.85;1.27;;;21.60;69.70;;;;;;3576689;40;20033;-81
2021/05/28 10:07:51;;;;;;;3.10;0.60;;;21.50;67.50;;;;;;3574647;40;20040;-82
2021/05/28 10:10:19;;;;;;;1.80;0.90;;;21.60;71.10;;;;;;3576556;40;20049;-81
2021/05/28 10:12:48;;;;;;;3.65;0.85;;;21.80;69.80;;;;;;3567498;40;20327;-82
2021/05/28 10:15:15;;;;;;;2.97;0.80;;;21.70;68.30;;;;;;3576695;40;20041;-81
2021/05/28 10:17:41;;;;;;;4.57;1.35;;;21.60;69.30;;;;;;3575866;40;20071;-81
2021/05/28 10:20:08;;;;;;;2.67;1.00;;;21.40;67.40;;;;;;3575738;40;20467;-81
2021/05/28 10:22:34;;;;;;;2.08;0.70;;;21.50;69.90;;;;;;3575748;40;20051;-81
2021/05/28 10:25:06;;;;;;;2.85;1.20;;;21.80;69.40;;;;;;3577098;40;20041;-81
2021/05/28 10:27:32;;;;;;;2.28;1.30;;;21.80;69.10;;;;;;3576050;40;20045;-81
2021/05/28 10:29:58;;;;;;;3.00;1.48;;;21.90;70.10;;;;;;3584299;40;20036;-81
2021/05/28 10:32:25;;;;;;;2.22;1.10;;;22.00;70.10;;;;;;3576707;40;20065;-81
2021/05/28 10:35:09;;;;;;;2.95;0.98;;;21.80;68.90;;;;;;3576739;40;20036;-80
2021/05/28 10:37:36;;;;;;;3.20;1.10;;;21.80;63.40;;;;;;3577320;40;20320;-81
2021/05/28 10:40:21;;;;;;;1.50;0.90;;;22.00;69.20;;;;;;3576826;40;20045;-80
2021/05/28 10:43:05;;;;;;;4.13;1.42;;;22.10;67.00;;;;;;3576957;40;20063;-80
2021/05/28 10:46:03;;;;;;;1.77;0.90;;;22.20;58.80;;;;;;3592444;39;20342;-82
2021/05/28 10:48:38;;;;;;;3.67;1.48;;;22.10;57.30;;;;;;3576614;40;20056;-81
2021/05/28 10:51:12;;;;;;;2.80;1.10;;;21.90;63.50;;;;;;3576631;40;20047;-80
2021/05/28 10:53:59;;;;;;;3.30;0.95;;;21.90;64.30;;;;;;3576838;40;20087;-81
2021/05/28 10:56:35;;;;;;;2.65;1.65;;;22.00;67.90;;;;;;3570910;40;20048;-81
2021/05/28 10:59:09;;;;;;;1.65;0.75;;;22.20;66.70;;;;;;3575364;40;20041;-81
2021/05/28 11:01:58;;;;;;;3.72;0.95;;;22.10;65.90;;;;;;3573718;40;20032;-81
2021/05/28 11:04:44;;;;;;;2.28;0.60;;;22.10;59.10;;;;;;3574990;40;20067;-81
2021/05/28 11:07:10;;;;;;;1.83;0.88;;;22.00;56.70;;;;;;3576376;40;20531;-81
2021/05/28 11:09:40;;;;;;;3.22;0.90;;;22.00;66.30;;;;;;3576725;40;20082;-81
2021/05/28 11:12:17;;;;;;;2.13;0.70;;;22.10;65.90;;;;;;3576684;40;20311;-81
2021/05/28 11:15:08;;;;;;;1.65;0.90;;;22.10;66.10;;;;;;3576034;40;20122;-81
2021/05/28 11:18:04;;;;;;;3.15;0.75;;;22.20;58.10;;;;;;3576543;40;20449;-80
2021/05/28 11:20:38;;;;;;;2.08;1.00;;;22.20;54.80;;;;;;3574358;40;20036;-81
2021/05/28 11:23:12;;;;;;;4.47;1.15;;;22.20;63.40;;;;;;3573661;40;20455;-80
2021/05/28 11:25:50;;;;;;;2.53;1.27;;;22.20;64.60;;;;;;3575747;40;20053;-81
2021/05/28 11:28:16;;;;;;;1.55;0.60;;;22.40;60.80;;;;;;3573939;40;20049;-81
2021/05/28 11:30:47;;;;;;;3.25;0.77;;;22.60;64.30;;;;;;3575613;40;20063;-80
2021/05/28 11:33:42;;;;;;;1.88;0.98;;;22.80;63.80;;;;;;3574920;40;20041;-81
2021/05/28 11:36:39;;;;;;;2.30;1.25;;;22.90;55.70;;;;;;3575352;40;20163;-80
2021/05/28 11:39:10;;;;;;;2.58;0.73;;;23.00;55.20;;;;;;3574971;40;20049;-81
2021/05/28 11:42:03;;;;;;;3.05;1.08;;;23.10;59.70;;;;;;3556569;40;20041;-81
2021/05/28 11:44:34;;;;;;;2.05;1.10;;;23.00;56.50;;;;;;3555419;40;20045;-80
2021/05/28 11:47:02;;;;;;;1.70;0.88;;;22.90;62.70;;;;;;3556159;40;20057;-81
2021/05/28 11:49:28;;;;;;;2.78;0.77;;;22.90;63.00;;;;;;3555729;40;20038;-82
2021/05/28 11:52:05;;;;;;;1.88;0.60;;;22.90;62.80;;;;;;3555846;40;20037;-80
2021/05/28 11:54:36;;;;;;;1.77;0.70;;;22.90;61.20;;;;;;3555720;40;20057;-80
2021/05/28 11:57:13;;;;;;;2.42;0.98;;;22.90;61.10;;;;;;3555035;40;20041;-81
2021/05/28 11:59:56;;;;;;;2.25;0.60;;;22.90;56.90;;;;;;3556689;40;20038;-81
2021/05/28 12:02:38;;;;;;;3.35;0.95;;;22.80;59.10;;;;;;3546044;40;20258;-81
2021/05/28 12:05:06;;;;;;;3.17;1.25;;;22.80;58.30;;;;;;3556300;40;20046;-80
2021/05/28 12:07:32;;;;;;;2.05;0.90;;;22.70;61.30;;;;;;3556054;40;20038;-81
2021/05/28 12:10:09;;;;;;;1.13;0.55;;;22.70;61.40;;;;;;3555034;40;20131;-80
2021/05/28 12:12:58;;;;;;;2.28;0.57;;;22.70;56.60;;;;;;3555329;40;20132;-81
2021/05/28 12:15:54;;;;;;;2.03;1.17;;;22.50;55.60;;;;;;3554265;40;20503;-81
2021/05/28 12:18:33;;;;;;;1.52;0.73;;;22.50;54.60;;;;;;3554835;40;20317;-80
2021/05/28 12:21:12;;;;;;;0.68;0.65;;;22.40;56.60;;;;;;3555214;40;20056;-80
2021/05/28 12:23:38;;;;;;;1.15;1.00;;;22.60;57.80;;;;;;3556214;40;20380;-80
2021/05/28 12:26:13;;;;;;;3.85;1.10;;;22.80;60.00;;;;;;3555178;40;20049;-80
2021/05/28 12:28:41;;;;;;;2.80;1.27;;;23.10;58.00;;;;;;3556292;40;20061;-80
2021/05/28 12:31:13;;;;;;;2.00;0.55;;;23.10;59.90;;;;;;3555737;40;20045;-80
2021/05/28 12:33:55;;;;;;;1.55;0.95;;;23.10;57.50;;;;;;3555328;40;20049;-80
2021/05/28 12:36:36;;;;;;;2.10;1.05;;;22.90;54.60;;;;;;3556016;40;20062;-80
2021/05/28 12:39:24;;;;;;;1.60;0.93;;;22.70;56.50;;;;;;3554947;40;20050;-80
2021/05/28 12:41:49;;;;;;;1.58;0.98;;;22.80;57.50;;;;;;3589510;39;20037;-80
2021/05/28 12:44:17;;;;;;;3.55;0.73;;;22.90;60.10;;;;;;3575207;40;20397;-80
2021/05/28 12:46:43;;;;;;;4.43;1.73;;;22.90;60.30;;;;;;3574941;40;20053;-80
2021/05/28 12:49:15;;;;;;;1.25;0.68;;;23.10;59.50;;;;;;3575629;40;20051;-79
2021/05/28 12:51:48;;;;;;;3.97;0.68;;;23.30;57.70;;;;;;3575123;40;20053;-80
2021/05/28 12:54:23;;;;;;;2.40;1.30;;;23.50;57.40;;;;;;3573523;40;20219;-79
2021/05/28 12:56:58;;;;;;;1.90;0.70;;;23.60;54.40;;;;;;3575888;40;20043;-79